Time;durP1;ratioP1;P1;durP2;ratioP2;P2;SDS_P1;SDS_P2;PMS_P1;PMS_P2;Temp;Humidity;BMP_temperature;BMP_pressure;BME280_temperature;BME280_humidity;BME280_pressure;Samples;Min_cycle;Max_cycle;Signal;HPM_P1;HPM_P2
2022/08/01 00:04:02;;;;;;;1.13;1.02;;;;;;;;;;12554737;28;20393;-76
2022/08/01 00:10:05;;;;;;;1.67;1.10;;;;;;;;;;12534658;28;20045;-80
2022/08/01 00:16:07;;;;;;;1.65;1.55;;;;;;;;;;12548673;28;20485;-80
2022/08/01 00:22:08;;;;;;;1.30;1.20;;;;;;;;;;12555042;28;20044;-75
2022/08/01 00:28:13;;;;;;;1.00;1.00;;;;;;;;;;12547796;28;20041;-76
2022/08/01 00:34:15;;;;;;;1.00;0.90;;;;;;;;;;12549403;28;20048;-76
2022/08/01 00:40:16;;;;;;;1.20;1.10;;;;;;;;;;12554243;28;20055;-80
2022/08/01 00:46:18;;;;;;;1.40;1.10;;;;;;;;;;12550371;28;20044;-79
2022/08/01 00:52:20;;;;;;;1.50;1.17;;;;;;;;;;12547859;28;20041;-77
2022/08/01 00:58:22;;;;;;;1.35;1.25;;;;;;;;;;12547495;28;20047;-76
2022/08/01 01:04:23;;;;;;;1.65;1.42;;;;;;;;;;12546737;28;20033;-79
2022/08/01 01:10:30;;;;;;;1.40;1.20;;;;;;;;;;12546170;28;20048;-76
2022/08/01 01:16:34;;;;;;;1.88;1.50;;;;;;;;;;12553712;28;20049;-76
2022/08/01 01:22:44;;;;;;;1.60;1.50;;;;;;;;;;12546446;28;20036;-76
2022/08/01 01:29:01;;;;;;;2.27;2.00;;;;;;;;;;12545995;28;20029;-79
2022/08/01 01:35:06;;;;;;;1.80;1.67;;;;;;;;;;12544572;28;20377;-79
2022/08/01 01:41:08;;;;;;;2.10;2.00;;;;;;;;;;12544962;28;20064;-76
2022/08/01 01:47:11;;;;;;;2.40;2.20;;;;;;;;;;12546668;28;20068;-76
2022/08/01 01:53:15;;;;;;;2.05;1.95;;;;;;;;;;12548437;28;20513;-79
2022/08/01 01:59:20;;;;;;;1.67;1.58;;;;;;;;;;12552085;28;20033;-75
2022/08/01 02:05:22;;;;;;;1.50;1.40;;;;;;;;;;12548446;28;20029;-79
2022/08/01 02:11:24;;;;;;;2.30;2.10;;;;;;;;;;12543784;28;20397;-79
2022/08/01 02:17:25;;;;;;;2.33;2.13;;;;;;;;;;12544894;28;20060;-76
2022/08/01 02:23:32;;;;;;;1.85;1.75;;;;;;;;;;12543784;28;20037;-76
2022/08/01 02:29:38;;;;;;;2.15;1.85;;;;;;;;;;12543796;28;20400;-76
2022/08/01 02:35:41;;;;;;;2.30;1.88;;;;;;;;;;12543327;28;20065;-80
2022/08/01 02:41:45;;;;;;;2.80;2.03;;;;;;;;;;12543518;28;20064;-80
2022/08/01 02:47:48;;;;;;;2.25;2.08;;;;;;;;;;12543188;28;20036;-80
2022/08/01 02:53:52;;;;;;;2.65;1.92;;;;;;;;;;12547580;28;20045;-80
2022/08/01 02:59:54;;;;;;;2.35;2.15;;;;;;;;;;12542878;28;20366;-76
2022/08/01 03:05:56;;;;;;;3.00;2.80;;;;;;;;;;12544730;28;20025;-77
2022/08/01 03:12:00;;;;;;;2.92;2.60;;;;;;;;;;12545659;28;20041;-76
2022/08/01 03:18:02;;;;;;;1.38;1.27;;;;;;;;;;12545637;28;20040;-80
2022/08/01 03:24:06;;;;;;;2.60;2.40;;;;;;;;;;12552755;28;20041;-77
2022/08/01 03:30:08;;;;;;;2.60;2.40;;;;;;;;;;12552030;28;20040;-77
2022/08/01 03:36:29;;;;;;;;;;;;;;;;;;12552205;28;20052;-77
2022/08/01 03:42:36;;;;;;;2.63;2.30;;;;;;;;;;12549866;28;19920;-80
2022/08/01 03:48:45;;;;;;;2.00;1.90;;;;;;;;;;12551384;28;20036;-76
2022/08/01 03:54:50;;;;;;;2.40;2.30;;;;;;;;;;12536862;28;20508;-77
2022/08/01 04:00:52;;;;;;;1.83;1.73;;;;;;;;;;12550131;28;20043;-77
2022/08/01 04:07:22;;;;;;;2.45;2.25;;;;;;;;;;12551320;28;20044;-79
2022/08/01 04:13:25;;;;;;;2.53;2.30;;;;;;;;;;12553708;28;20049;-76
2022/08/01 04:19:26;;;;;;;3.03;2.72;;;;;;;;;;12548305;28;20538;-76
2022/08/01 04:25:28;;;;;;;;;;;;;;;;;;12551204;28;20073;-80
2022/08/01 04:31:31;;;;;;;2.77;2.60;;;;;;;;;;12547373;28;19916;-79
2022/08/01 04:37:36;;;;;;;3.63;3.33;;;;;;;;;;12548471;28;20048;-76
2022/08/01 04:43:38;;;;;;;2.78;2.58;;;;;;;;;;12548057;28;20535;-76
2022/08/01 04:49:41;;;;;;;2.20;1.98;;;;;;;;;;12547640;28;20049;-79
2022/08/01 04:55:43;;;;;;;2.85;2.60;;;;;;;;;;12546836;28;20036;-77
2022/08/01 05:01:48;;;;;;;2.42;2.22;;;;;;;;;;12545372;28;20405;-76
2022/08/01 05:07:50;;;;;;;2.22;2.05;;;;;;;;;;12546586;28;20040;-76
2022/08/01 05:13:51;;;;;;;;;;;;;;;;;;12548283;28;20071;-80
2022/08/01 05:19:53;;;;;;;2.90;2.70;;;;;;;;;;12544792;28;19912;-81
2022/08/01 05:25:54;;;;;;;;;;;;;;;;;;12544717;28;20033;-79
2022/08/01 05:31:57;;;;;;;3.30;3.10;;;;;;;;;;12545582;28;19923;-80
2022/08/01 05:37:59;;;;;;;3.00;2.45;;;;;;;;;;12543722;28;20037;-80
2022/08/01 05:44:00;;;;;;;;;;;;;;;;;;12545115;28;20065;-80
2022/08/01 05:50:02;;;;;;;3.70;3.40;;;;;;;;;;12547062;28;19959;-77
2022/08/01 05:56:04;;;;;;;2.40;2.20;;;;;;;;;;12589905;28;20290;-76
2022/08/01 06:02:06;;;;;;;2.97;2.65;;;;;;;;;;12543952;28;20038;-76
2022/08/01 06:08:08;;;;;;;2.17;1.98;;;;;;;;;;12544159;28;20044;-76
2022/08/01 06:14:10;;;;;;;3.45;2.17;;;;;;;;;;12543421;28;20056;-76
2022/08/01 06:20:11;;;;;;;3.15;2.88;;;;;;;;;;12545660;28;20037;-76
2022/08/01 06:26:13;;;;;;;1.75;1.45;;;;;;;;;;12542378;28;20025;-76
2022/08/01 06:32:15;;;;;;;2.17;1.13;;;;;;;;;;12525129;28;20048;-77
2022/08/01 06:38:17;;;;;;;1.30;1.05;;;;;;;;;;12542224;28;20033;-77
2022/08/01 06:44:19;;;;;;;2.17;2.08;;;;;;;;;;12542159;28;20065;-77
2022/08/01 06:50:20;;;;;;;1.92;1.80;;;;;;;;;;12542041;28;20389;-77
2022/08/01 06:56:22;;;;;;;1.20;1.10;;;;;;;;;;12529956;28;20496;-76
2022/08/01 07:02:24;;;;;;;1.85;1.48;;;;;;;;;;12551062;28;20041;-76
2022/08/01 07:08:26;;;;;;;1.30;1.20;;;;;;;;;;12534304;28;20033;-76
2022/08/01 07:14:28;;;;;;;1.10;1.00;;;;;;;;;;12551007;28;20041;-77
2022/08/01 07:20:30;;;;;;;1.58;1.25;;;;;;;;;;12551224;28;20057;-77
2022/08/01 07:26:31;;;;;;;1.30;1.10;;;;;;;;;;12549496;28;20048;-77
2022/08/01 07:32:34;;;;;;;1.20;1.20;;;;;;;;;;12551050;28;20033;-77
2022/08/01 07:38:36;;;;;;;1.45;1.17;;;;;;;;;;12549082;28;20037;-77
2022/08/01 07:44:39;;;;;;;14.50;2.58;;;;;;;;;;12549550;28;20045;-81
2022/08/01 07:50:41;;;;;;;1.80;0.70;;;;;;;;;;12549691;28;20041;-80
2022/08/01 07:56:42;;;;;;;1.10;1.00;;;;;;;;;;12549678;28;20036;-80
2022/08/01 08:02:44;;;;;;;2.33;1.10;;;;;;;;;;12548022;28;20041;-81
2022/08/01 08:08:46;;;;;;;0.82;0.82;;;;;;;;;;12547070;28;20044;-81
2022/08/01 08:14:48;;;;;;;3.05;0.93;;;;;;;;;;12547673;28;20052;-82
2022/08/01 08:20:51;;;;;;;1.60;0.80;;;;;;;;;;12593851;28;20037;-81
2022/08/01 08:26:54;;;;;;;1.42;0.90;;;;;;;;;;12552465;28;20041;-81
2022/08/01 08:32:56;;;;;;;0.50;0.50;;;;;;;;;;12546972;28;20044;-81
2022/08/01 08:39:00;;;;;;;1.23;1.00;;;;;;;;;;12546608;28;20024;-81
2022/08/01 08:45:01;;;;;;;1.50;1.15;;;;;;;;;;12546317;28;20049;-80
2022/08/01 08:51:03;;;;;;;0.90;0.90;;;;;;;;;;12545742;28;20052;-81
2022/08/01 08:57:05;;;;;;;1.60;1.00;;;;;;;;;;12546809;28;20028;-80
2022/08/01 09:03:07;;;;;;;1.77;0.90;;;;;;;;;;12546876;28;20032;-81
2022/08/01 09:09:09;;;;;;;1.77;0.73;;;;;;;;;;12549986;28;20040;-82
2022/08/01 09:15:11;;;;;;;0.50;0.50;;;;;;;;;;12546086;28;20041;-81
2022/08/01 09:21:15;;;;;;;1.70;1.60;;;;;;;;;;12545647;28;20029;-81
2022/08/01 09:27:20;;;;;;;1.52;1.42;;;;;;;;;;12544166;28;20500;-81
2022/08/01 09:33:22;;;;;;;0.98;0.88;;;;;;;;;;12545214;28;20041;-80
2022/08/01 09:39:24;;;;;;;1.42;0.80;;;;;;;;;;12541627;28;20488;-80
2022/08/01 09:45:33;;;;;;;0.50;0.50;;;;;;;;;;12543984;28;20049;-81
2022/08/01 09:51:35;;;;;;;1.38;0.70;;;;;;;;;;12526834;28;20045;-81
2022/08/01 09:57:38;;;;;;;1.05;0.70;;;;;;;;;;12544594;28;20033;-81
2022/08/01 10:03:40;;;;;;;0.90;0.90;;;;;;;;;;12544399;28;20041;-81
2022/08/01 10:09:42;;;;;;;1.58;0.80;;;;;;;;;;12544750;28;20029;-81
2022/08/01 10:15:44;;;;;;;1.95;0.93;;;;;;;;;;12542689;28;20041;-80
2022/08/01 10:21:49;;;;;;;1.55;0.98;;;;;;;;;;12543075;28;20037;-80
2022/08/01 10:27:54;;;;;;;1.40;0.80;;;;;;;;;;12544128;28;20047;-80
2022/08/01 10:33:57;;;;;;;0.60;0.60;;;;;;;;;;12552968;28;20504;-82
2022/08/01 10:40:00;;;;;;;0.50;0.50;;;;;;;;;;12553941;28;20033;-80
2022/08/01 10:46:02;;;;;;;2.15;0.90;;;;;;;;;;12553477;28;20056;-79
2022/08/01 10:52:04;;;;;;;0.70;0.70;;;;;;;;;;12553000;28;20040;-80
2022/08/01 10:58:08;;;;;;;1.23;0.90;;;;;;;;;;12551943;28;20029;-81
2022/08/01 11:04:11;;;;;;;0.70;0.60;;;;;;;;;;12552514;28;20036;-80
2022/08/01 11:10:15;;;;;;;0.70;0.65;;;;;;;;;;12550389;28;20041;-80
2022/08/01 11:16:28;;;;;;;0.70;0.60;;;;;;;;;;12550187;28;20028;-80
2022/08/01 11:22:29;;;;;;;0.70;0.63;;;;;;;;;;12550146;28;20052;-79
2022/08/01 11:28:31;;;;;;;3.75;0.65;;;;;;;;;;12551223;28;20040;-79
2022/08/01 11:34:51;;;;;;;0.30;0.30;;;;;;;;;;12549520;28;20036;-79
2022/08/01 11:41:12;;;;;;;2.05;0.60;;;;;;;;;;12549270;28;20068;-79
2022/08/01 11:47:14;;;;;;;0.70;0.30;;;;;;;;;;12532007;28;20041;-79
2022/08/01 11:53:16;;;;;;;0.88;0.50;;;;;;;;;;12549873;28;20497;-79
2022/08/01 11:59:18;;;;;;;0.75;0.40;;;;;;;;;;12549691;28;20489;-78
2022/08/01 12:05:20;;;;;;;0.30;0.30;;;;;;;;;;12548225;28;20033;-77
2022/08/01 12:11:22;;;;;;;0.77;0.60;;;;;;;;;;12548897;28;20044;-77
2022/08/01 12:17:33;;;;;;;0.50;0.50;;;;;;;;;;12580322;28;20029;-78
2022/08/01 12:23:35;;;;;;;0.50;0.50;;;;;;;;;;12569553;28;20041;-79
2022/08/01 12:29:37;;;;;;;2.08;0.65;;;;;;;;;;12531110;28;20386;-78
2022/08/01 12:35:41;;;;;;;0.50;0.40;;;;;;;;;;12547222;28;20041;-79
2022/08/01 12:41:43;;;;;;;0.65;0.40;;;;;;;;;;12546409;28;20064;-79
2022/08/01 12:47:45;;;;;;;0.60;0.50;;;;;;;;;;12548079;28;20036;-79
2022/08/01 12:53:48;;;;;;;0.40;0.40;;;;;;;;;;12546897;28;20044;-79
2022/08/01 12:59:53;;;;;;;1.52;0.47;;;;;;;;;;12547127;28;20043;-80
2022/08/01 13:05:55;;;;;;;1.13;0.50;;;;;;;;;;12550508;28;20500;-79
2022/08/01 13:11:59;;;;;;;1.55;0.50;;;;;;;;;;12546938;28;20044;-79
2022/08/01 13:18:02;;;;;;;0.40;0.40;;;;;;;;;;12546113;28;20040;-80
2022/08/01 13:24:12;;;;;;;1.05;0.63;;;;;;;;;;12528434;28;20474;-78
2022/08/01 13:30:15;;;;;;;0.50;0.50;;;;;;;;;;12545479;28;20045;-79
2022/08/01 13:36:17;;;;;;;0.47;0.47;;;;;;;;;;12545247;28;20492;-75
2022/08/01 13:42:18;;;;;;;0.85;0.50;;;;;;;;;;12544024;28;20056;-76
2022/08/01 13:48:20;;;;;;;2.20;0.73;;;;;;;;;;12543588;28;20393;-76
2022/08/01 13:54:23;;;;;;;1.30;0.40;;;;;;;;;;12543235;28;20489;-76
2022/08/01 14:00:25;;;;;;;0.40;0.40;;;;;;;;;;12544467;28;20405;-76
2022/08/01 14:07:01;;;;;;;0.40;0.40;;;;;;;;;;12481264;28;20037;-75
2022/08/01 14:13:03;;;;;;;1.83;0.40;;;;;;;;;;12543488;28;20041;-76
2022/08/01 14:19:05;;;;;;;0.57;0.30;;;;;;;;;;12542787;28;20068;-76
2022/08/01 14:25:07;;;;;;;2.17;0.40;;;;;;;;;;12543813;28;20040;-76
2022/08/01 14:31:10;;;;;;;0.65;0.30;;;;;;;;;;12571667;28;20029;-75
2022/08/01 14:37:30;;;;;;;0.73;0.63;;;;;;;;;;12562992;28;20045;-76
2022/08/01 14:43:32;;;;;;;1.08;0.45;;;;;;;;;;12542211;28;20052;-76
2022/08/01 14:49:33;;;;;;;1.05;0.40;;;;;;;;;;12541947;28;20500;-76
2022/08/01 14:55:35;;;;;;;0.32;0.30;;;;;;;;;;12541542;28;20354;-79
2022/08/01 15:01:37;;;;;;;0.40;0.30;;;;;;;;;;12543015;28;20362;-80
2022/08/01 15:07:39;;;;;;;0.50;0.50;;;;;;;;;;12544102;28;20029;-80
2022/08/01 15:13:41;;;;;;;2.63;0.40;;;;;;;;;;12542277;28;20045;-80
2022/08/01 15:19:43;;;;;;;0.65;0.40;;;;;;;;;;12550174;28;20483;-80
2022/08/01 15:25:45;;;;;;;0.95;0.40;;;;;;;;;;12552229;28;20486;-80
2022/08/01 15:31:46;;;;;;;0.25;0.25;;;;;;;;;;12549873;28;20501;-80
2022/08/01 15:37:48;;;;;;;0.60;0.35;;;;;;;;;;12549396;28;20048;-80
2022/08/01 15:43:50;;;;;;;0.20;0.20;;;;;;;;;;12532793;28;20441;-81
2022/08/01 15:49:52;;;;;;;0.20;0.20;;;;;;;;;;12549056;28;20036;-80
2022/08/01 15:55:54;;;;;;;0.63;0.20;;;;;;;;;;12548854;28;20044;-80
2022/08/01 16:01:55;;;;;;;0.68;0.40;;;;;;;;;;12548593;28;20029;-77
2022/08/01 16:07:57;;;;;;;0.95;0.35;;;;;;;;;;12547382;28;20040;-77
2022/08/01 16:13:59;;;;;;;2.15;0.45;;;;;;;;;;12548260;28;20048;-80
2022/08/01 16:20:01;;;;;;;0.75;0.40;;;;;;;;;;12549857;28;20033;-81
2022/08/01 16:26:02;;;;;;;0.93;0.43;;;;;;;;;;12546130;28;20040;-80
2022/08/01 16:32:05;;;;;;;0.20;0.20;;;;;;;;;;12545626;28;20052;-80
2022/08/01 16:38:07;;;;;;;1.00;0.30;;;;;;;;;;12561059;28;20013;-80
2022/08/01 16:44:09;;;;;;;0.85;0.22;;;;;;;;;;12582984;28;20383;-81
2022/08/01 16:50:11;;;;;;;0.35;0.35;;;;;;;;;;12543985;28;20029;-81
2022/08/01 16:56:12;;;;;;;0.13;0.13;;;;;;;;;;12543550;28;20044;-80
2022/08/01 17:02:14;;;;;;;0.25;0.13;;;;;;;;;;12544444;28;20044;-80
2022/08/01 17:08:16;;;;;;;0.55;0.55;;;;;;;;;;12544119;28;20044;-80
2022/08/01 17:14:18;;;;;;;0.20;0.20;;;;;;;;;;12545220;28;20053;-81
2022/08/01 17:20:20;;;;;;;1.13;0.20;;;;;;;;;;12543375;28;20040;-80
2022/08/01 17:26:22;;;;;;;0.30;0.25;;;;;;;;;;12542656;28;20040;-80
2022/08/01 17:32:24;;;;;;;0.22;0.20;;;;;;;;;;12544792;28;20041;-80
2022/08/01 17:38:26;;;;;;;1.30;0.30;;;;;;;;;;12542360;28;20060;-80
2022/08/01 17:44:27;;;;;;;0.82;0.50;;;;;;;;;;12546982;28;20064;-80
2022/08/01 17:50:29;;;;;;;0.45;0.20;;;;;;;;;;12543978;28;20048;-82
2022/08/01 17:56:31;;;;;;;0.20;0.20;;;;;;;;;;12544150;28;20033;-82
2022/08/01 18:02:33;;;;;;;0.17;0.13;;;;;;;;;;12544524;28;20036;-81
2022/08/01 18:08:35;;;;;;;1.02;0.40;;;;;;;;;;12542762;28;20044;-81
2022/08/01 18:14:36;;;;;;;0.43;0.38;;;;;;;;;;12542933;28;20049;-81
2022/08/01 18:20:38;;;;;;;0.17;0.17;;;;;;;;;;12544118;28;20377;-81
2022/08/01 18:26:40;;;;;;;0.40;0.30;;;;;;;;;;12543608;28;20033;-82
2022/08/01 18:32:42;;;;;;;0.35;0.30;;;;;;;;;;12542448;28;20524;-81
2022/08/01 18:38:44;;;;;;;0.35;0.35;;;;;;;;;;12543010;28;20535;-81
2022/08/01 18:44:46;;;;;;;0.38;0.30;;;;;;;;;;12543183;28;20037;-82
2022/08/01 18:50:48;;;;;;;0.65;0.30;;;;;;;;;;12545253;28;20048;-81
2022/08/01 18:56:49;;;;;;;0.82;0.40;;;;;;;;;;12551537;28;20528;-82
2022/08/01 19:02:51;;;;;;;2.08;0.30;;;;;;;;;;12552523;28;20028;-81
2022/08/01 19:08:54;;;;;;;0.55;0.40;;;;;;;;;;12551311;28;20045;-80
2022/08/01 19:14:56;;;;;;;0.30;0.30;;;;;;;;;;12550823;28;20041;-81
2022/08/01 19:20:58;;;;;;;1.02;0.70;;;;;;;;;;12551012;28;20036;-80
2022/08/01 19:27:00;;;;;;;0.60;0.60;;;;;;;;;;12550102;28;20029;-82
2022/08/01 19:33:02;;;;;;;0.90;0.60;;;;;;;;;;12551297;28;20517;-81
2022/08/01 19:39:05;;;;;;;0.40;0.40;;;;;;;;;;12550062;28;20045;-81
2022/08/01 19:45:07;;;;;;;0.57;0.40;;;;;;;;;;12554246;28;20053;-80
2022/08/01 19:51:14;;;;;;;1.05;0.50;;;;;;;;;;12600373;28;20113;-81
2022/08/01 19:57:15;;;;;;;1.13;0.40;;;;;;;;;;12548720;28;20041;-81
2022/08/01 20:03:18;;;;;;;0.98;0.38;;;;;;;;;;12548480;28;20457;-81
2022/08/01 20:09:20;;;;;;;1.10;0.60;;;;;;;;;;12549744;28;20187;-81
2022/08/01 20:15:22;;;;;;;1.55;0.38;;;;;;;;;;12548142;28;20040;-81
2022/08/01 20:21:25;;;;;;;0.82;0.50;;;;;;;;;;12549118;28;20032;-80
2022/08/01 20:27:29;;;;;;;1.05;0.40;;;;;;;;;;12547388;28;20033;-82
2022/08/01 20:33:31;;;;;;;1.58;0.50;;;;;;;;;;12550060;28;20052;-81
2022/08/01 20:39:33;;;;;;;0.80;0.40;;;;;;;;;;12551827;28;20044;-81
2022/08/01 20:45:35;;;;;;;0.70;0.40;;;;;;;;;;12548939;28;20056;-81
2022/08/01 20:51:37;;;;;;;0.68;0.50;;;;;;;;;;12546618;28;20052;-81
2022/08/01 20:57:39;;;;;;;1.10;0.40;;;;;;;;;;12548267;28;20033;-81
2022/08/01 21:04:01;;;;;;;0.75;0.43;;;;;;;;;;12548408;28;20490;-81
2022/08/01 21:10:07;;;;;;;0.50;0.50;;;;;;;;;;12546894;28;20041;-81
2022/08/01 21:16:12;;;;;;;1.23;0.30;;;;;;;;;;12546376;28;20048;-80
2022/08/01 21:22:23;;;;;;;0.65;0.30;;;;;;;;;;12528829;28;20033;-80
2022/08/01 21:28:25;;;;;;;0.57;0.20;;;;;;;;;;12546513;28;20037;-81
2022/08/01 21:34:28;;;;;;;1.08;0.43;;;;;;;;;;12545866;28;20047;-80
2022/08/01 21:40:31;;;;;;;0.47;0.47;;;;;;;;;;12544232;28;20397;-81
2022/08/01 21:46:33;;;;;;;0.40;0.40;;;;;;;;;;12544312;28;20037;-80
2022/08/01 21:52:55;;;;;;;0.65;0.60;;;;;;;;;;12543684;28;20040;-81
2022/08/01 21:59:03;;;;;;;0.43;0.43;;;;;;;;;;12543946;28;20045;-77
2022/08/01 22:05:07;;;;;;;0.47;0.47;;;;;;;;;;12545178;28;20040;-76
2022/08/01 22:11:12;;;;;;;0.90;0.35;;;;;;;;;;12543476;28;20036;-77
2022/08/01 22:17:19;;;;;;;0.45;0.40;;;;;;;;;;12544061;28;20052;-78
2022/08/01 22:23:21;;;;;;;0.90;0.45;;;;;;;;;;12543175;28;20037;-78
2022/08/01 22:29:26;;;;;;;0.63;0.40;;;;;;;;;;12550932;28;20034;-77
2022/08/01 22:35:28;;;;;;;0.40;0.40;;;;;;;;;;12553255;28;20033;-77
2022/08/01 22:41:30;;;;;;;0.90;0.30;;;;;;;;;;12553780;28;20212;-77
2022/08/01 22:47:48;;;;;;;1.55;0.60;;;;;;;;;;12578063;28;20017;-78
2022/08/01 22:54:04;;;;;;;1.13;0.68;;;;;;;;;;12577563;28;20060;-77
2022/08/01 23:00:07;;;;;;;2.20;0.50;;;;;;;;;;12551648;28;20036;-78
2022/08/01 23:06:33;;;;;;;0.63;0.63;;;;;;;;;;12551198;28;20037;-77
2022/08/01 23:12:36;;;;;;;0.82;0.82;;;;;;;;;;12551445;28;20072;-77
2022/08/01 23:18:39;;;;;;;1.38;0.95;;;;;;;;;;12551989;28;20044;-77
2022/08/01 23:24:41;;;;;;;1.27;0.90;;;;;;;;;;12551492;28;20048;-77
2022/08/01 23:30:44;;;;;;;0.57;0.57;;;;;;;;;;12550162;28;20033;-77
2022/08/01 23:36:46;;;;;;;0.73;0.60;;;;;;;;;;12553119;28;20033;-77
2022/08/01 23:42:48;;;;;;;0.70;0.70;;;;;;;;;;12549743;28;20056;-77
2022/08/01 23:48:49;;;;;;;0.98;0.90;;;;;;;;;;12550588;28;20033;-77
2022/08/01 23:54:52;;;;;;;0.60;0.60;;;;;;;;;;12549775;28;20045;-77
